Terminal Aerodrome Forecast
Issued by NWS Billings, MT

Home | Current Version | Previous Version | Graphics & Text | Print | Product List | Glossary On
Versions: 1 2 3 4 5 6 7 8 9 10 11 12 13 14
000
FTUS45 KBYZ 172332
TAFMLS
TAF
KMLS 172332Z 1800/1824 18006KT P6SM BKN200
     FM180400 14008KT P6SM BKN120
     FM181700 29012KT P6SM BKN120
     FM182100 31012KT P6SM VCSH BKN080=

USA.gov is the U.S. government's official web portal to all federal, state and local government web resources and services.